Time;durP1;ratioP1;P1;durP2;ratioP2;P2;SDS_P1;SDS_P2;PMS_P1;PMS_P2;Temp;Humidity;BMP_temperature;BMP_pressure;BME280_temperature;BME280_humidity;BME280_pressure;Samples;Min_cycle;Max_cycle;Signal;HPM_P1;HPM_P2
2022/05/16 00:00:19;;;;;;;5.30;2.33;;;;;;;18.59;82.05;99931.53;4973284;28;20085;-66
2022/05/16 00:02:44;;;;;;;4.97;2.53;;;;;;;18.53;83.27;99921.19;4973290;28;20022;-66
2022/05/16 00:05:10;;;;;;;3.50;2.28;;;;;;;18.53;84.28;99919.38;4973221;28;20078;-66
2022/05/16 00:07:37;;;;;;;3.33;2.05;;;;;;;18.53;84.00;99915.81;4971808;28;20026;-66
2022/05/16 00:10:05;;;;;;;3.30;2.05;;;;;;;18.60;83.43;99914.44;4953319;29;20816;-66
2022/05/16 00:12:31;;;;;;;3.13;2.00;;;;;;;18.65;83.74;99906.91;4952574;29;20067;-66
2022/05/16 00:14:56;;;;;;;3.50;1.92;;;;;;;18.75;83.46;99913.38;4954293;29;20082;-66
2022/05/16 00:17:21;;;;;;;4.88;2.55;;;;;;;18.86;83.27;99914.38;4963040;28;20056;-66
2022/05/16 00:19:47;;;;;;;3.30;2.00;;;;;;;19.00;82.46;99924.22;4973458;28;20031;-66
2022/05/16 00:22:12;;;;;;;12.32;3.22;;;;;;;19.08;81.14;99932.66;4973472;28;20027;-66
2022/05/16 00:24:42;;;;;;;4.43;2.30;;;;;;;19.16;80.15;99941.09;4975801;28;20033;-66
2022/05/16 00:27:09;;;;;;;3.38;2.03;;;;;;;19.26;78.59;99944.88;4972142;28;20054;-66
2022/05/16 00:29:34;;;;;;;4.28;2.58;;;;;;;19.32;79.89;99942.66;4973158;28;20084;-66
2022/05/16 00:32:00;;;;;;;5.60;2.60;;;;;;;19.42;80.54;99945.59;4972035;28;20587;-66
2022/05/16 00:34:25;;;;;;;4.05;2.00;;;;;;;19.43;82.71;99937.38;4970022;28;20410;-66
2022/05/16 00:36:51;;;;;;;4.18;2.22;;;;;;;19.49;83.53;99952.25;4969812;28;20395;-67
2022/05/16 00:39:19;;;;;;;4.63;2.55;;;;;;;19.50;83.79;99945.91;4970204;28;20509;-67
2022/05/16 00:41:45;;;;;;;4.05;2.20;;;;;;;19.45;84.69;99942.69;4970912;28;20402;-66
2022/05/16 00:44:11;;;;;;;4.82;2.63;;;;;;;19.39;85.88;99929.59;4973135;28;20058;-66
2022/05/16 00:46:37;;;;;;;3.63;2.58;;;;;;;19.43;85.86;99950.00;4967058;28;20019;-66
2022/05/16 00:49:18;;;;;;;5.65;2.42;;;;;;;19.37;86.53;99945.88;4974648;28;20105;-66
2022/05/16 00:51:54;;;;;;;5.82;2.67;;;;;;;19.32;86.79;99928.31;4972809;28;20125;-66
2022/05/16 00:54:24;;;;;;;7.50;2.75;;;;;;;19.28;86.83;99918.66;4972898;28;20089;-66
2022/05/16 00:56:56;;;;;;;6.00;3.17;;;;;;;19.21;86.38;99914.66;4972194;28;20026;-66
2022/05/16 00:59:28;;;;;;;6.38;3.53;;;;;;;19.28;86.51;99922.22;4972620;28;20431;-66
2022/05/16 01:04:48;;;;;;;5.18;3.60;;;;;;;19.27;87.38;99908.84;4972519;28;20402;-66
2022/05/16 01:07:35;;;;;;;7.32;3.33;;;;;;;19.23;87.96;99910.91;4972312;28;20027;-66
2022/05/16 01:10:02;;;;;;;6.55;3.30;;;;;;;19.19;88.49;99893.19;4972079;28;20043;-66
2022/05/16 01:12:33;;;;;;;4.82;3.13;;;;;;;19.20;88.99;99908.41;4972845;28;20042;-66
2022/05/16 01:15:00;;;;;;;9.07;3.70;;;;;;;19.19;88.85;99905.84;4971968;28;20399;-66
2022/05/16 01:17:29;;;;;;;5.78;3.58;;;;;;;19.22;88.92;99916.41;4961649;28;20039;-66
2022/05/16 01:19:55;;;;;;;8.85;3.88;;;;;;;19.23;89.38;99908.19;4952418;29;20047;-66
2022/05/16 01:22:20;;;;;;;4.82;3.20;;;;;;;19.22;89.14;99902.91;4970357;28;20516;-66
2022/05/16 01:24:46;;;;;;;7.35;3.65;;;;;;;19.19;89.51;99905.84;4972373;28;20030;-67
2022/05/16 01:27:12;;;;;;;6.20;3.45;;;;;;;19.12;89.61;99893.75;4972272;28;20474;-66
2022/05/16 01:29:37;;;;;;;8.32;3.70;;;;;;;19.14;89.63;99899.91;4972292;28;20046;-66
2022/05/16 01:32:03;;;;;;;6.63;4.05;;;;;;;19.13;89.55;99895.44;4971806;28;20574;-66
2022/05/16 01:34:29;;;;;;;5.47;3.53;;;;;;;19.17;88.81;99892.47;4971141;28;20042;-66
2022/05/16 01:36:54;;;;;;;7.15;4.28;;;;;;;19.15;88.13;99893.53;4971807;28;20019;-66
2022/05/16 01:39:19;;;;;;;7.80;3.80;;;;;;;19.15;88.52;99898.91;4971997;28;20504;-66
2022/05/16 01:41:45;;;;;;;8.32;3.70;;;;;;;19.11;88.02;99889.31;4971879;28;20027;-66
2022/05/16 01:44:11;;;;;;;9.80;3.78;;;;;;;19.16;87.14;99900.66;4972051;28;20030;-67
2022/05/16 01:46:40;;;;;;;6.60;3.70;;;;;;;19.13;86.97;99890.94;4971850;28;20023;-67
2022/05/16 01:49:08;;;;;;;6.18;3.75;;;;;;;19.20;86.99;99907.53;4971625;28;20035;-67
2022/05/16 01:51:34;;;;;;;6.60;3.70;;;;;;;19.21;86.86;99898.47;4971984;28;20118;-67
2022/05/16 01:54:02;;;;;;;8.63;4.10;;;;;;;19.20;87.25;99902.16;4971329;28;20052;-67
2022/05/16 01:56:27;;;;;;;6.32;3.53;;;;;;;19.12;88.31;99897.31;4971322;28;20101;-67
2022/05/16 01:58:52;;;;;;;4.78;3.10;;;;;;;19.01;88.66;99880.16;4970047;28;20500;-67
2022/05/16 02:01:18;;;;;;;6.75;3.30;;;;;;;18.99;89.26;99887.47;4969851;28;20034;-67
2022/05/16 02:03:46;;;;;;;8.68;3.50;;;;;;;18.88;90.24;99890.88;4968441;28;20022;-67
2022/05/16 02:06:12;;;;;;;8.75;3.83;;;;;;;18.80;91.19;99881.59;4969943;28;20031;-67
2022/05/16 02:08:38;;;;;;;4.68;3.45;;;;;;;18.70;91.21;99888.59;4970090;28;20117;-67
2022/05/16 02:11:05;;;;;;;7.63;3.88;;;;;;;18.70;91.10;99892.13;4970170;28;20383;-67
2022/05/16 02:13:34;;;;;;;9.48;4.38;;;;;;;18.71;91.65;99890.31;4970445;28;20058;-66
2022/05/16 02:16:00;;;;;;;6.10;3.58;;;;;;;18.70;91.38;99885.91;4971716;28;20110;-66
2022/05/16 02:18:26;;;;;;;7.43;3.67;;;;;;;18.69;91.57;99889.56;4971498;28;20114;-66
2022/05/16 02:24:38;;;;;;;5.47;4.00;;;;;;;18.63;92.02;99882.78;4971367;28;20081;-66
2022/05/16 02:26:22;;;;;;;5.35;3.75;;;;;;;18.62;91.45;99883.72;4971994;28;20162;-66
2022/05/16 02:28:48;;;;;;;4.70;3.28;;;;;;;18.58;92.06;99887.59;4975221;28;20035;-66
2022/05/16 02:31:13;;;;;;;6.57;3.88;;;;;;;18.48;92.04;99864.06;4974604;28;20127;-66
2022/05/16 02:33:38;;;;;;;13.27;3.97;;;;;;;18.56;91.56;99883.25;4975032;28;20033;-66
2022/05/16 02:36:04;;;;;;;6.70;3.90;;;;;;;18.61;90.46;99891.91;4974974;28;20486;-66
2022/05/16 02:38:29;;;;;;;7.30;3.78;;;;;;;18.68;90.08;99883.28;4974369;28;20086;-66
2022/05/16 02:40:55;;;;;;;8.10;4.00;;;;;;;18.74;89.19;99882.91;4973941;28;20042;-66
2022/05/16 02:43:20;;;;;;;9.40;4.63;;;;;;;18.71;89.16;99872.34;4973442;28;20026;-66
2022/05/16 02:45:46;;;;;;;8.00;3.42;;;;;;;18.78;88.49;99888.94;4972221;28;20035;-66
2022/05/16 02:48:11;;;;;;;8.45;3.85;;;;;;;18.80;88.20;99895.06;4974044;28;20050;-66
2022/05/16 02:50:36;;;;;;;4.07;3.20;;;;;;;18.82;87.89;99901.22;4972016;28;20109;-66
2022/05/16 02:53:02;;;;;;;7.07;3.08;;;;;;;18.73;87.06;99885.69;4973366;28;20027;-66
2022/05/16 02:55:29;;;;;;;6.45;3.53;;;;;;;18.76;87.36;99896.25;4973279;28;20402;-66
2022/05/16 02:57:55;;;;;;;4.72;3.33;;;;;;;18.78;87.28;99894.34;4973066;28;20054;-66
2022/05/16 03:00:20;;;;;;;10.77;3.95;;;;;;;18.79;86.88;99890.66;4974472;28;20054;-66
2022/05/16 03:02:46;;;;;;;5.05;3.13;;;;;;;18.83;86.41;99886.81;4973462;28;20101;-66
2022/05/16 03:05:13;;;;;;;8.73;3.28;;;;;;;18.83;86.65;99898.44;4972816;28;20075;-66
2022/05/16 03:07:39;;;;;;;6.35;3.22;;;;;;;18.85;86.81;99901.88;4973104;28;20069;-66
2022/05/16 03:10:06;;;;;;;6.05;3.60;;;;;;;18.86;87.07;99918.94;4972663;28;20042;-66
2022/05/16 03:12:31;;;;;;;7.20;3.80;;;;;;;18.88;86.22;99919.69;4972390;28;20034;-66
2022/05/16 03:14:57;;;;;;;5.93;3.95;;;;;;;18.92;85.60;99919.38;4953536;28;20028;-66
2022/05/16 03:17:23;;;;;;;5.28;3.40;;;;;;;18.95;85.70;99910.19;4972305;28;20022;-66
2022/05/16 03:19:49;;;;;;;7.85;4.03;;;;;;;18.96;86.48;99904.69;4972489;28;20026;-66
2022/05/16 03:22:14;;;;;;;8.63;4.68;;;;;;;19.02;89.87;99919.59;4972713;28;20509;-65
2022/05/16 03:24:40;;;;;;;8.63;4.13;;;;;;;19.01;93.60;99907.94;4974293;28;20041;-64
2022/05/16 03:27:06;;;;;;;6.07;3.58;;;;;;;18.95;94.23;99912.91;4973955;28;20045;-64
2022/05/16 03:29:32;;;;;;;7.63;3.85;;;;;;;18.91;95.20;99916.78;4973828;28;20038;-65
2022/05/16 03:31:57;;;;;;;7.40;4.20;;;;;;;18.88;95.67;99907.06;4973634;28;20078;-65
2022/05/16 03:34:23;;;;;;;10.30;4.28;;;;;;;18.83;95.93;99916.44;4972522;28;20023;-65
2022/05/16 03:36:48;;;;;;;15.98;4.60;;;;;;;18.82;95.70;99912.00;4972832;28;20175;-65
2022/05/16 03:41:57;;;;;;;9.88;3.83;;;;;;;18.80;97.32;99903.16;4973015;28;20078;-65
2022/05/16 03:44:24;;;;;;;7.63;4.07;;;;;;;18.78;98.47;99907.81;4972599;28;20434;-65
2022/05/16 03:46:52;;;;;;;7.85;3.63;;;;;;;18.72;99.51;99902.81;4973362;28;20778;-65
2022/05/16 03:49:18;;;;;;;5.75;4.00;;;;;;;18.59;100.00;99899.22;4973248;28;20041;-64
2022/05/16 03:51:44;;;;;;;6.40;3.70;;;;;;;18.45;99.98;99896.59;4973957;28;20161;-64
2022/05/16 03:54:09;;;;;;;6.85;4.13;;;;;;;18.46;100.00;99903.69;4972509;28;20026;-64
2022/05/16 03:56:35;;;;;;;7.07;4.05;;;;;;;18.46;100.00;99903.69;4961143;28;20471;-64
2022/05/16 03:59:01;;;;;;;8.13;4.07;;;;;;;18.42;100.00;99899.50;4970727;28;20101;-64
2022/05/16 04:01:27;;;;;;;8.45;4.10;;;;;;;18.35;100.00;99910.63;4973904;28;20429;-64
2022/05/16 04:03:54;;;;;;;7.28;3.95;;;;;;;18.27;100.00;99906.69;4973924;28;20490;-64
2022/05/16 04:06:19;;;;;;;7.95;3.80;;;;;;;18.24;100.00;99910.47;4972805;28;20040;-65
2022/05/16 04:08:45;;;;;;;9.65;4.40;;;;;;;18.23;100.00;99913.28;4973577;28;20023;-65
2022/05/16 04:11:15;;;;;;;7.53;4.38;;;;;;;18.18;100.00;99910.88;4973289;28;20041;-65
2022/05/16 04:13:41;;;;;;;7.35;4.35;;;;;;;18.09;100.00;99910.59;4973596;28;20037;-65
2022/05/16 04:16:07;;;;;;;6.35;3.55;;;;;;;18.02;100.00;99911.97;4973190;28;20034;-65
2022/05/16 04:18:33;;;;;;;9.88;4.40;;;;;;;17.90;100.00;99905.56;4954370;28;20372;-65
2022/05/16 04:21:00;;;;;;;8.55;4.30;;;;;;;17.84;100.00;99914.00;4960973;28;20031;-65
2022/05/16 04:23:25;;;;;;;7.10;4.35;;;;;;;17.86;100.00;99919.28;4973260;28;20035;-64
2022/05/16 04:25:51;;;;;;;9.82;4.18;;;;;;;17.87;100.00;99913.84;4972604;28;20061;-64
2022/05/16 04:28:16;;;;;;;8.20;4.38;;;;;;;17.91;100.00;99919.84;4973399;28;20094;-64
2022/05/16 04:30:42;;;;;;;9.95;4.22;;;;;;;17.89;100.00;99924.50;4972634;28;20086;-64
2022/05/16 04:33:08;;;;;;;7.47;4.35;;;;;;;17.80;100.00;99925.94;4976001;28;20069;-65
2022/05/16 04:35:36;;;;;;;5.53;3.60;;;;;;;17.77;100.00;99925.25;4973137;28;20073;-65
2022/05/16 04:38:01;;;;;;;6.65;4.25;;;;;;;17.68;100.00;99929.38;4972765;28;20085;-65
2022/05/16 04:40:26;;;;;;;5.85;4.15;;;;;;;17.68;100.00;99932.09;4972434;28;20422;-65
2022/05/16 04:42:52;;;;;;;8.52;4.40;;;;;;;17.72;100.00;99947.09;4972180;28;20035;-65
2022/05/16 04:45:30;;;;;;;5.68;3.97;;;;;;;17.76;100.00;99945.91;4975066;28;20561;-65
2022/05/16 04:48:01;;;;;;;7.85;4.57;;;;;;;17.87;100.00;99937.19;4972491;28;20047;-65
2022/05/16 04:50:32;;;;;;;7.72;3.83;;;;;;;18.00;100.00;99932.75;4971647;28;20542;-65
2022/05/16 04:52:58;;;;;;;7.03;3.95;;;;;;;18.13;100.00;99942.63;4972996;28;20027;-65
2022/05/16 04:55:25;;;;;;;7.00;4.00;;;;;;;18.29;100.00;99940.66;4972231;28;20030;-65
2022/05/16 04:57:51;;;;;;;6.90;4.55;;;;;;;18.34;100.00;99933.16;4972780;28;20086;-65
2022/05/16 05:00:18;;;;;;;6.22;4.13;;;;;;;18.49;100.00;99946.59;4974078;28;20042;-65
2022/05/16 05:02:44;;;;;;;7.65;4.47;;;;;;;18.61;100.00;99948.47;4953690;28;20035;-65
2022/05/16 05:05:10;;;;;;;6.80;4.13;;;;;;;18.73;100.00;99945.81;4958368;28;20041;-65
2022/05/16 05:07:37;;;;;;;7.63;4.28;;;;;;;18.87;100.00;99953.00;4981392;28;20034;-65
2022/05/16 05:15:34;;;;;;;6.80;3.83;;;;;;;19.12;100.00;99958.44;4985798;28;20037;-65
2022/05/16 05:18:00;;;;;;;6.03;3.92;;;;;;;19.18;99.93;99958.03;4955340;28;20078;-65
2022/05/16 05:20:26;;;;;;;5.90;3.90;;;;;;;19.23;98.82;99951.34;4966920;28;20537;-65
2022/05/16 05:22:51;;;;;;;5.32;3.67;;;;;;;19.32;98.80;99955.28;4969444;28;20022;-65
2022/05/16 05:25:19;;;;;;;6.20;3.83;;;;;;;19.37;98.15;99945.03;4970036;28;20035;-65
2022/05/16 05:27:46;;;;;;;6.88;4.95;;;;;;;19.45;97.45;99953.47;4968096;28;20065;-65
2022/05/16 05:30:14;;;;;;;6.30;3.70;;;;;;;19.44;97.69;99938.22;4971684;28;20034;-65
2022/05/16 05:32:40;;;;;;;6.45;4.03;;;;;;;19.63;96.70;99944.06;4972053;28;20035;-65
2022/05/16 05:35:06;;;;;;;9.30;4.65;;;;;;;19.77;97.33;99943.94;4971959;28;20516;-65
2022/05/16 05:37:32;;;;;;;5.85;4.25;;;;;;;19.84;97.03;99937.16;4971386;28;20510;-65
2022/05/16 05:40:00;;;;;;;6.85;4.00;;;;;;;20.12;97.13;99963.88;4971798;28;20124;-65
2022/05/16 05:42:26;;;;;;;10.32;4.68;;;;;;;20.32;95.19;99962.47;4970711;28;20540;-64
2022/05/16 05:44:52;;;;;;;6.00;3.47;;;;;;;20.57;93.61;99984.88;4971371;28;20038;-64
2022/05/16 05:47:19;;;;;;;7.57;3.75;;;;;;;20.78;90.64;99979.72;4968252;28;20379;-65
2022/05/16 05:49:44;;;;;;;7.60;3.63;;;;;;;20.94;87.71;99981.16;4971983;28;20030;-65
2022/05/16 05:52:10;;;;;;;7.85;4.43;;;;;;;21.18;85.89;99988.41;4971351;28;20031;-65
2022/05/16 05:54:35;;;;;;;9.43;3.92;;;;;;;21.33;84.25;99993.53;4967094;28;20525;-65
2022/05/16 05:57:02;;;;;;;6.13;4.05;;;;;;;21.44;84.71;99995.38;4968573;28;20026;-65
2022/05/16 05:59:28;;;;;;;6.65;3.80;;;;;;;21.50;83.93;100000.34;4970048;28;20031;-65
2022/05/16 06:01:53;;;;;;;6.88;3.63;;;;;;;21.43;82.67;100004.50;4970649;28;20393;-65
2022/05/16 06:04:19;;;;;;;6.68;3.40;;;;;;;21.41;82.40;100012.75;4973987;28;20030;-65
2022/05/16 06:06:46;;;;;;;5.00;3.28;;;;;;;21.35;82.54;100013.19;4974111;28;20031;-65
2022/05/16 06:09:12;;;;;;;6.70;3.63;;;;;;;21.33;82.18;100014.31;4973394;28;20026;-65
2022/05/16 06:11:37;;;;;;;7.47;3.50;;;;;;;21.30;82.49;100014.53;4972735;28;20042;-65
2022/05/16 06:14:03;;;;;;;4.78;2.90;;;;;;;21.31;82.14;100021.66;4973868;28;20081;-65
2022/05/16 06:16:28;;;;;;;7.45;3.60;;;;;;;21.37;82.76;100023.91;4972034;28;20503;-65
2022/05/16 06:18:54;;;;;;;9.02;3.22;;;;;;;21.46;83.06;100031.31;4965691;28;20031;-65
2022/05/16 06:21:19;;;;;;;7.00;3.25;;;;;;;21.56;83.01;100027.81;4975232;28;20057;-65
2022/05/16 06:23:44;;;;;;;9.20;3.58;;;;;;;21.69;82.98;100041.25;4975594;28;20027;-65
2022/05/16 06:26:10;;;;;;;9.23;3.08;;;;;;;21.85;81.20;100041.78;4975449;28;20026;-65
2022/05/16 06:28:38;;;;;;;6.38;3.60;;;;;;;22.08;80.47;100046.25;4974671;28;20589;-65
2022/05/16 06:31:04;;;;;;;6.30;3.67;;;;;;;22.36;82.19;100051.22;4974497;28;20031;-65
2022/05/16 06:33:30;;;;;;;6.05;3.40;;;;;;;22.43;79.55;100048.88;4972368;28;20023;-65
2022/05/16 06:35:56;;;;;;;7.20;3.67;;;;;;;22.56;78.73;100063.19;4974266;28;20026;-65
2022/05/16 06:38:25;;;;;;;6.60;3.78;;;;;;;22.60;78.23;100061.97;4974028;28;20494;-65
2022/05/16 06:40:52;;;;;;;8.70;4.00;;;;;;;22.61;78.80;100051.00;4975080;28;20035;-65
2022/05/16 06:43:19;;;;;;;5.25;3.20;;;;;;;22.72;77.97;100064.53;4975204;28;20042;-65
2022/05/16 06:45:45;;;;;;;5.47;2.95;;;;;;;22.67;76.07;100072.19;4973604;28;20434;-65
2022/05/16 06:48:11;;;;;;;5.28;2.78;;;;;;;22.70;75.84;100069.22;4956636;28;20061;-65
2022/05/16 06:50:38;;;;;;;5.07;3.17;;;;;;;22.78;75.64;100079.44;4959272;28;20113;-65
2022/05/16 06:53:05;;;;;;;5.28;2.95;;;;;;;22.71;75.21;100084.50;4976887;28;20026;-65
2022/05/16 06:55:31;;;;;;;5.55;2.88;;;;;;;22.64;76.26;100085.13;4974830;28;20031;-65
2022/05/16 06:57:56;;;;;;;3.90;2.70;;;;;;;22.64;76.51;100088.69;4975018;28;20082;-65
2022/05/16 07:00:22;;;;;;;5.90;3.05;;;;;;;22.57;76.53;100082.03;4974872;28;20437;-65
2022/05/16 07:02:48;;;;;;;5.45;2.90;;;;;;;22.48;76.66;100090.91;4991352;28;20038;-65
2022/05/16 07:05:14;;;;;;;5.25;3.08;;;;;;;22.37;76.92;100082.78;4994276;28;20034;-65
2022/05/16 07:07:40;;;;;;;8.48;2.65;;;;;;;22.34;76.94;100093.81;4993746;28;20027;-65
2022/05/16 07:10:06;;;;;;;6.00;2.90;;;;;;;22.38;77.09;100103.47;4993869;28;20022;-65
2022/05/16 07:12:31;;;;;;;6.55;3.05;;;;;;;22.36;76.72;100105.41;4993974;28;20478;-66
2022/05/16 07:14:57;;;;;;;5.18;2.90;;;;;;;22.40;77.04;100101.50;4993735;28;20038;-66
2022/05/16 07:17:22;;;;;;;5.82;3.38;;;;;;;22.40;77.00;100108.75;4983827;28;20034;-65
2022/05/16 07:19:49;;;;;;;5.18;2.55;;;;;;;22.57;77.06;100116.44;4974519;28;20050;-65
2022/05/16 07:22:19;;;;;;;5.53;2.85;;;;;;;23.23;75.82;100114.50;4974414;28;20030;-65
2022/05/16 07:24:45;;;;;;;6.22;2.97;;;;;;;24.08;73.29;100120.88;4973806;28;20069;-65
2022/05/16 07:29:56;;;;;;;6.65;3.05;;;;;;;25.51;66.16;100129.72;4974006;28;20062;-66
2022/05/16 07:32:21;;;;;;;7.07;3.13;;;;;;;25.90;60.79;100132.31;4973661;28;20475;-66
2022/05/16 07:34:47;;;;;;;5.25;2.78;;;;;;;26.32;60.66;100132.00;4974440;28;20023;-66
2022/05/16 07:37:13;;;;;;;4.40;2.83;;;;;;;26.56;59.12;100144.16;4974294;28;20367;-66
2022/05/16 07:39:38;;;;;;;6.47;2.80;;;;;;;26.91;57.04;100147.09;4957173;28;20030;-67
2022/05/16 07:42:07;;;;;;;6.22;2.67;;;;;;;26.87;58.61;100144.81;4972566;28;20069;-67
2022/05/16 07:44:34;;;;;;;4.20;2.58;;;;;;;26.61;58.47;100158.22;4971354;28;20073;-67
2022/05/16 07:46:59;;;;;;;5.32;2.58;;;;;;;26.31;59.89;100163.03;4971905;28;20042;-67
2022/05/16 07:49:25;;;;;;;6.05;2.88;;;;;;;25.92;60.08;100160.28;4972495;28;20053;-68
2022/05/16 07:51:51;;;;;;;5.70;2.33;;;;;;;26.40;59.93;100163.00;4972406;28;20061;-68
2022/05/16 07:54:17;;;;;;;6.30;2.55;;;;;;;26.74;58.01;100150.59;4972057;28;20110;-67
2022/05/16 07:56:42;;;;;;;6.03;2.65;;;;;;;27.59;56.50;100164.84;4973571;28;20023;-67
2022/05/16 07:59:09;;;;;;;5.53;2.55;;;;;;;28.24;54.27;100167.22;4973278;28;20030;-67
2022/05/16 08:01:36;;;;;;;7.82;3.08;;;;;;;28.67;51.70;100168.25;4972844;28;20561;-67
2022/05/16 08:04:04;;;;;;;6.55;2.70;;;;;;;28.68;51.45;100178.19;4973609;28;20035;-67
2022/05/16 08:06:30;;;;;;;6.10;2.33;;;;;;;28.82;49.76;100180.31;4973265;28;20135;-67
2022/05/16 08:11:40;;;;;;;8.25;2.15;;;;;;;29.28;47.97;100186.25;4971995;28;20754;-68
2022/05/16 08:14:06;;;;;;;7.05;2.67;;;;;;;29.60;47.05;100180.03;4972194;28;20023;-68
2022/05/16 08:16:32;;;;;;;8.63;2.53;;;;;;;29.86;46.49;100183.56;4972124;28;20105;-68
2022/05/16 08:18:58;;;;;;;5.20;2.40;;;;;;;30.06;44.85;100178.63;4972128;28;20038;-68
2022/05/16 08:21:23;;;;;;;4.65;2.20;;;;;;;30.17;45.13;100175.53;4971285;28;20037;-68
2022/05/16 08:23:48;;;;;;;4.03;2.15;;;;;;;30.63;43.95;100172.97;4975232;28;20022;-68
2022/05/16 08:26:14;;;;;;;7.22;2.53;;;;;;;30.40;42.67;100191.19;4972410;28;20030;-67
2022/05/16 08:28:39;;;;;;;4.63;2.50;;;;;;;29.82;43.71;100173.94;4973312;28;20031;-68
2022/05/16 08:31:05;;;;;;;5.25;2.28;;;;;;;29.38;45.95;100180.66;4973272;28;20069;-68
2022/05/16 08:33:33;;;;;;;6.53;2.28;;;;;;;29.32;45.38;100192.28;4973323;28;20098;-68
2022/05/16 08:41:36;;;;;;;7.65;2.47;;;;;;;30.42;43.90;100207.50;4971678;28;20110;-68
2022/05/16 08:44:36;;;;;;;8.43;2.42;;;;;;;31.14;45.10;100206.56;4971246;28;20030;-68
2022/05/16 08:47:07;;;;;;;9.18;2.38;;;;;;;31.09;43.17;100209.81;4968955;28;20046;-68
2022/05/16 08:49:39;;;;;;;5.80;2.28;;;;;;;30.92;43.80;100225.50;4952526;28;20042;-68
2022/05/16 08:52:16;;;;;;;5.65;2.42;;;;;;;30.35;43.11;100226.53;4973514;28;20049;-68
2022/05/16 08:54:48;;;;;;;9.95;2.33;;;;;;;29.63;44.15;100229.06;4986392;28;20030;-68
2022/05/16 08:57:36;;;;;;;4.93;2.00;;;;;;;29.36;45.23;100235.63;4991309;28;20436;-70
2022/05/16 09:00:10;;;;;;;7.88;2.00;;;;;;;29.17;48.71;100245.97;4992326;28;20073;-69
2022/05/16 09:02:37;;;;;;;5.00;2.05;;;;;;;29.09;49.25;100238.59;4992344;28;20030;-69
2022/05/16 09:05:19;;;;;;;7.05;2.20;;;;;;;29.12;48.88;100245.59;4992187;28;20022;-69
2022/05/16 09:07:48;;;;;;;5.55;1.85;;;;;;;29.19;48.68;100247.53;4991687;28;20041;-69
2022/05/16 09:10:34;;;;;;;5.57;2.05;;;;;;;29.11;47.42;100247.47;4992201;28;20437;-69
2022/05/16 09:13:25;;;;;;;5.68;1.60;;;;;;;28.55;46.22;100248.94;4974123;28;20046;-69
2022/05/16 09:16:13;;;;;;;3.60;1.23;;;;;;;27.79;46.81;100270.31;4991597;28;20060;-69
2022/05/16 09:18:59;;;;;;;3.58;1.27;;;;;;;27.37;49.86;100263.63;4972266;28;20061;-69
2022/05/16 09:21:37;;;;;;;4.70;1.33;;;;;;;27.16;50.79;100287.56;4972569;28;20026;-69
2022/05/16 09:24:12;;;;;;;1.60;0.90;;;;;;;26.93;51.04;100297.97;4972421;28;20026;-69
2022/05/16 09:27:02;;;;;;;4.60;1.00;;;;;;;26.35;50.17;100296.25;4971964;28;20038;-70
2022/05/16 09:29:39;;;;;;;2.35;1.05;;;;;;;25.84;51.16;100304.63;4972339;28;20038;-70
2022/05/16 09:32:11;;;;;;;2.58;1.13;;;;;;;25.39;51.85;100321.50;4954658;28;20023;-70
2022/05/16 09:34:37;;;;;;;3.95;1.38;;;;;;;25.05;53.40;100328.16;4952531;29;20023;-70
2022/05/16 09:37:03;;;;;;;3.85;1.10;;;;;;;24.72;55.15;100336.50;4951905;28;20122;-69
2022/05/16 09:39:33;;;;;;;5.47;1.42;;;;;;;24.42;55.99;100339.94;4953068;29;20114;-69
2022/05/16 09:42:11;;;;;;;4.50;1.38;;;;;;;24.15;56.89;100336.84;4953113;29;20481;-71
2022/05/16 09:44:48;;;;;;;6.13;1.35;;;;;;;23.87;57.08;100354.50;4952612;29;20026;-69
2022/05/16 09:47:28;;;;;;;8.05;1.25;;;;;;;23.54;61.18;100378.13;4952434;29;20039;-69
2022/05/16 09:50:02;;;;;;;3.67;1.10;;;;;;;23.15;64.80;100372.13;4954246;28;20454;-69
2022/05/16 09:52:37;;;;;;;6.43;2.35;;;;;;;22.87;71.52;100388.81;4969289;28;20065;-70
2022/05/16 09:55:11;;;;;;;3.72;1.40;;;;;;;22.47;75.59;100383.81;4968949;28;20031;-70
2022/05/16 09:57:47;;;;;;;4.05;1.20;;;;;;;22.12;79.18;100400.84;4970266;28;20449;-69
2022/05/16 10:00:30;;;;;;;5.20;1.48;;;;;;;21.92;81.65;100408.72;4970318;28;20035;-68
2022/05/16 10:03:30;;;;;;;5.38;1.38;;;;;;;21.60;83.61;100415.53;4970033;28;20034;-68
2022/05/16 10:05:58;;;;;;;3.95;2.20;;;;;;;21.35;86.99;100429.97;4971059;28;20494;-67
2022/05/16 10:08:33;;;;;;;6.55;2.40;;;;;;;21.15;89.29;100421.50;4971624;28;20042;-68
2022/05/16 10:11:04;;;;;;;7.60;1.42;;;;;;;21.12;90.67;100416.31;4971523;28;20034;-68
2022/05/16 10:13:31;;;;;;;7.53;1.42;;;;;;;21.18;92.49;100418.59;4972183;28;20069;-68
2022/05/16 10:16:00;;;;;;;3.90;1.15;;;;;;;21.15;92.14;100432.34;4972066;28;20430;-68
2022/05/16 10:18:28;;;;;;;4.95;1.48;;;;;;;21.25;92.39;100434.28;4971648;28;20102;-68
2022/05/16 10:21:09;;;;;;;5.57;1.55;;;;;;;21.40;91.93;100440.47;4974249;28;20085;-68
2022/05/16 10:23:41;;;;;;;3.40;1.55;;;;;;;21.43;90.77;100442.97;4971977;28;20457;-68
2022/05/16 10:26:18;;;;;;;7.45;1.80;;;;;;;21.37;91.04;100444.25;4971428;28;20027;-68
2022/05/16 10:28:54;;;;;;;3.80;1.30;;;;;;;21.33;91.27;100447.28;4970012;28;20039;-69
2022/05/16 10:34:17;;;;;;;5.78;1.90;;;;;;;21.34;92.36;100427.34;4969830;28;20033;-69
2022/05/16 10:36:47;;;;;;;4.57;1.77;;;;;;;21.50;92.22;100444.28;4969819;28;20113;-69
2022/05/16 10:39:19;;;;;;;5.95;2.30;;;;;;;21.57;91.26;100437.44;4969691;28;20066;-69
2022/05/16 10:42:10;;;;;;;5.47;2.03;;;;;;;21.62;92.09;100437.97;4969906;28;20047;-69
2022/05/16 10:45:00;;;;;;;3.00;1.42;;;;;;;21.54;89.34;100440.34;4971123;28;20486;-69
2022/05/16 10:47:31;;;;;;;6.90;2.67;;;;;;;21.49;90.74;100439.81;4971728;28;20159;-69
2022/05/16 10:50:09;;;;;;;6.18;1.70;;;;;;;21.53;92.15;100441.34;4974887;28;20394;-69
2022/05/16 10:52:53;;;;;;;8.07;1.83;;;;;;;21.46;91.60;100437.34;4966204;28;20042;-69
2022/05/16 10:55:19;;;;;;;4.63;2.00;;;;;;;21.53;91.88;100433.22;4955930;29;20024;-69
2022/05/16 10:58:19;;;;;;;4.88;2.55;;;;;;;21.69;92.55;100439.28;4955837;29;20047;-69
2022/05/16 11:01:06;;;;;;;5.32;2.03;;;;;;;21.89;93.88;100430.63;4955101;29;20031;-69
2022/05/16 11:03:37;;;;;;;4.90;2.13;;;;;;;22.10;94.71;100435.34;4954203;29;20395;-69
2022/05/16 11:06:35;;;;;;;6.07;3.00;;;;;;;22.21;96.64;100439.13;4954180;29;20509;-69
2022/05/16 11:09:17;;;;;;;8.40;3.75;;;;;;;22.27;97.32;100431.41;4953933;29;20403;-70
2022/05/16 11:11:50;;;;;;;5.10;2.25;;;;;;;22.37;97.98;100437.88;4954409;29;20479;-70
2022/05/16 11:14:22;;;;;;;5.32;2.40;;;;;;;22.40;97.13;100421.38;4954074;29;20039;-70
2022/05/16 11:16:52;;;;;;;8.65;3.13;;;;;;;22.60;96.65;100425.34;4953494;28;20418;-70
2022/05/16 11:19:41;;;;;;;9.98;4.10;;;;;;;22.90;96.02;100423.84;4953950;29;20107;-70
2022/05/16 11:22:41;;;;;;;5.55;2.35;;;;;;;23.29;95.77;100420.78;4969626;28;20417;-70
2022/05/16 11:25:11;;;;;;;8.80;3.17;;;;;;;23.35;94.21;100422.16;4972632;28;20482;-70
2022/05/16 11:27:49;;;;;;;6.72;2.67;;;;;;;23.61;91.17;100406.53;4972935;28;20035;-70
2022/05/16 11:30:33;;;;;;;6.60;2.35;;;;;;;23.84;87.73;100417.25;4973118;28;20093;-71
2022/05/16 11:33:05;;;;;;;6.25;2.00;;;;;;;24.33;84.07;100406.00;4974373;28;20050;-71
2022/05/16 11:35:41;;;;;;;6.57;2.30;;;;;;;25.15;82.88;100403.47;4974126;28;20033;-71
2022/05/16 11:38:17;;;;;;;5.40;1.55;;;;;;;26.11;71.95;100396.72;4972875;28;20659;-70
2022/05/16 11:40:49;;;;;;;5.35;2.28;;;;;;;27.03;68.26;100375.25;4974022;28;20514;-70
2022/05/16 11:43:21;;;;;;;5.05;1.90;;;;;;;27.90;68.49;100386.88;4974223;28;20026;-70
2022/05/16 11:46:16;;;;;;;3.90;1.50;;;;;;;28.53;63.23;100385.97;4973955;28;20069;-70
2022/05/16 11:49:32;;;;;;;5.13;1.70;;;;;;;29.02;62.33;100388.16;4973990;28;20055;-69
2022/05/16 11:52:19;;;;;;;6.88;1.33;;;;;;;28.89;60.99;100386.81;4894254;29;20036;-69
2022/05/16 12:00:52;;;;;;;5.10;2.38;;;;;;;30.03;55.35;100368.28;4972745;28;20038;-69
2022/05/16 12:03:20;;;;;;;5.72;1.38;;;;;;;30.68;54.30;100365.59;4972686;28;20035;-69
2022/05/16 12:05:52;;;;;;;3.25;1.30;;;;;;;30.47;52.22;100373.44;4972644;28;20019;-70
2022/05/16 12:08:43;;;;;;;5.57;1.90;;;;;;;30.26;53.03;100370.31;4972404;28;20498;-70
2022/05/16 12:11:26;;;;;;;4.10;1.35;;;;;;;29.58;53.58;100379.50;4974450;28;20266;-70
2022/05/16 12:14:21;;;;;;;4.45;1.23;;;;;;;28.66;57.74;100374.63;4954615;28;20030;-70